Time;durP1;ratioP1;P1;durP2;ratioP2;P2;SDS_P1;SDS_P2;PMS_P1;PMS_P2;Temp;Humidity;BMP_temperature;BMP_pressure;BME280_temperature;BME280_humidity;BME280_pressure;Samples;Min_cycle;Max_cycle;Signal;HPM_P1;HPM_P2
2023/06/22 00:01:22;;;;;;;18.40;16.87;;;;;;;;;;5015177;28;20449;-88
2023/06/22 00:03:50;;;;;;;17.97;16.37;;;;;;;;;;5023652;28;20459;-85
2023/06/22 00:06:18;;;;;;;16.00;14.50;;;;;;;;;;5013942;28;20868;-85
2023/06/22 00:08:48;;;;;;;18.23;16.73;;;;;;;;;;5015244;28;20488;-87
2023/06/22 00:11:16;;;;;;;17.30;15.77;;;;;;;;;;4997517;28;20442;-84
2023/06/22 00:13:44;;;;;;;17.57;15.97;;;;;;;;;;5019400;28;20779;-87
2023/06/22 00:16:12;;;;;;;16.80;15.23;;;;;;;;;;5025075;28;20446;-88
2023/06/22 00:18:39;;;;;;;18.03;16.33;;;;;;;;;;5018517;28;20442;-87
2023/06/22 00:21:08;;;;;;;17.80;16.10;;;;;;;;;;5007830;28;20436;-87
2023/06/22 00:23:35;;;;;;;17.67;16.07;;;;;;;;;;5024940;28;20634;-85
2023/06/22 00:26:03;;;;;;;17.57;15.97;;;;;;;;;;5021473;28;20453;-87
2023/06/22 00:28:30;;;;;;;17.43;15.83;;;;;;;;;;5014612;28;20824;-88
2023/06/22 00:30:57;;;;;;;18.47;16.77;;;;;;;;;;5011663;28;20469;-87
2023/06/22 00:33:25;;;;;;;18.33;16.57;;;;;;;;;;5010609;28;20539;-88
2023/06/22 00:35:53;;;;;;;17.10;15.70;;;;;;;;;;5022054;28;20434;-88
2023/06/22 00:38:21;;;;;;;17.03;15.53;;;;;;;;;;4994974;28;20501;-87
2023/06/22 00:40:49;;;;;;;17.07;15.27;;;;;;;;;;5016783;28;20533;-87
2023/06/22 00:43:17;;;;;;;18.20;16.50;;;;;;;;;;5014356;28;20438;-89
2023/06/22 00:45:48;;;;;;;18.20;16.70;;;;;;;;;;5017894;28;20468;-88
2023/06/22 00:48:16;;;;;;;18.00;16.23;;;;;;;;;;5012371;28;20432;-89
2023/06/22 00:50:43;;;;;;;18.87;17.20;;;;;;;;;;5018361;28;20474;-88
2023/06/22 00:53:11;;;;;;;19.60;17.93;;;;;;;;;;4993194;28;20468;-88
2023/06/22 00:55:43;;;;;;;19.10;17.33;;;;;;;;;;5006934;28;20447;-86
2023/06/22 00:58:11;;;;;;;16.20;14.70;;;;;;;;;;5016620;28;20465;-83
2023/06/22 01:00:39;;;;;;;20.73;17.27;;;;;;;;;;4991577;28;20485;-87
2023/06/22 01:03:10;;;;;;;17.50;15.90;;;;;;;;;;5002051;28;20698;-86
2023/06/22 01:05:39;;;;;;;19.57;17.87;;;;;;;;;;5011949;28;20417;-83
2023/06/22 01:08:07;;;;;;;19.90;17.90;;;;;;;;;;5020227;28;20443;-86
2023/06/22 01:10:35;;;;;;;19.37;17.50;;;;;;;;;;5015101;28;20477;-86
2023/06/22 01:13:06;;;;;;;18.50;16.80;;;;;;;;;;5007407;28;20428;-88
2023/06/22 01:15:37;;;;;;;18.60;16.70;;;;;;;;;;4990398;28;20426;-88
2023/06/22 01:18:05;;;;;;;19.87;17.87;;;;;;;;;;5005818;28;20727;-86
2023/06/22 01:20:35;;;;;;;18.27;16.27;;;;;;;;;;5006549;28;20458;-86
2023/06/22 01:23:07;;;;;;;19.30;17.43;;;;;;;;;;5017359;28;20417;-87
2023/06/22 01:25:47;;;;;;;20.87;18.93;;;;;;;;;;5009730;28;20454;-88
2023/06/22 01:28:33;;;;;;;18.80;17.10;;;;;;;;;;5008793;28;20418;-83
2023/06/22 01:31:05;;;;;;;20.47;18.57;;;;;;;;;;5010306;28;20459;-87
2023/06/22 01:33:37;;;;;;;18.80;16.90;;;;;;;;;;5007597;28;20453;-85
2023/06/22 01:36:05;;;;;;;21.10;19.10;;;;;;;;;;5006392;28;20967;-85
2023/06/22 01:38:33;;;;;;;18.83;16.93;;;;;;;;;;5020729;28;20433;-87
2023/06/22 01:41:03;;;;;;;21.90;19.70;;;;;;;;;;5012389;28;20432;-85
2023/06/22 01:43:32;;;;;;;19.43;17.63;;;;;;;;;;5018296;28;20467;-86
2023/06/22 01:46:01;;;;;;;19.27;17.30;;;;;;;;;;5020866;28;20489;-88
2023/06/22 01:48:29;;;;;;;20.33;18.43;;;;;;;;;;5011377;28;20665;-86
2023/06/22 01:50:58;;;;;;;18.27;16.53;;;;;;;;;;5020591;28;20468;-87
2023/06/22 01:53:28;;;;;;;20.03;17.97;;;;;;;;;;4992017;28;20434;-84
2023/06/22 01:55:58;;;;;;;20.53;18.57;;;;;;;;;;5011719;28;20633;-86
2023/06/22 01:58:27;;;;;;;20.03;17.97;;;;;;;;;;5011572;28;20429;-87
2023/06/22 02:00:59;;;;;;;19.47;17.67;;;;;;;;;;5002416;28;20706;-87
2023/06/22 02:03:30;;;;;;;20.20;18.20;;;;;;;;;;5006759;28;20439;-85
2023/06/22 02:06:03;;;;;;;20.87;18.97;;;;;;;;;;4976781;28;20667;-87
2023/06/22 02:08:47;;;;;;;20.07;18.07;;;;;;;;;;5000216;28;20484;-87
2023/06/22 02:11:16;;;;;;;20.07;18.00;;;;;;;;;;5017128;28;20441;-86
2023/06/22 02:13:43;;;;;;;19.47;17.57;;;;;;;;;;5019698;28;20521;-86
2023/06/22 02:16:12;;;;;;;19.77;17.70;;;;;;;;;;5003044;28;20447;-86
2023/06/22 02:18:40;;;;;;;19.83;18.13;;;;;;;;;;4996419;28;20622;-87
2023/06/22 02:21:07;;;;;;;21.30;19.20;;;;;;;;;;5012354;28;20425;-86
2023/06/22 02:23:39;;;;;;;19.50;17.57;;;;;;;;;;5006774;28;20442;-86
2023/06/22 02:26:07;;;;;;;19.90;18.00;;;;;;;;;;4999497;28;20432;-87
2023/06/22 02:28:34;;;;;;;22.63;20.40;;;;;;;;;;5006276;28;20432;-84
2023/06/22 02:31:02;;;;;;;21.63;19.43;;;;;;;;;;5015836;28;20465;-83
2023/06/22 02:33:29;;;;;;;20.83;18.83;;;;;;;;;;5009671;28;20887;-85
2023/06/22 02:35:57;;;;;;;20.00;18.30;;;;;;;;;;5008965;28;20457;-83
2023/06/22 02:38:26;;;;;;;22.03;19.93;;;;;;;;;;5018149;28;20443;-83
2023/06/22 02:40:53;;;;;;;21.43;19.37;;;;;;;;;;5010406;28;20421;-82
2023/06/22 02:43:21;;;;;;;22.20;20.10;;;;;;;;;;5013545;28;20748;-83
2023/06/22 02:45:49;;;;;;;21.63;19.57;;;;;;;;;;5002571;28;20426;-83
2023/06/22 02:48:16;;;;;;;22.60;20.37;;;;;;;;;;5010689;28;20718;-82
2023/06/22 02:50:43;;;;;;;21.23;19.00;;;;;;;;;;5008877;28;20461;-81
2023/06/22 02:53:11;;;;;;;21.43;19.47;;;;;;;;;;5009162;28;20470;-83
2023/06/22 02:55:39;;;;;;;21.07;18.97;;;;;;;;;;5009421;28;20428;-82
2023/06/22 02:58:08;;;;;;;20.73;18.83;;;;;;;;;;5008322;28;20752;-82
2023/06/22 03:00:36;;;;;;;21.73;19.63;;;;;;;;;;4998714;28;20458;-85
2023/06/22 03:03:03;;;;;;;22.33;20.07;;;;;;;;;;5011476;28;20441;-86
2023/06/22 03:05:34;;;;;;;23.33;19.80;;;;;;;;;;4989780;28;20460;-82
2023/06/22 03:08:02;;;;;;;19.80;17.90;;;;;;;;;;5008807;28;20413;-84
2023/06/22 03:10:29;;;;;;;21.50;19.40;;;;;;;;;;4996760;28;20564;-82
2023/06/22 03:12:57;;;;;;;24.57;18.80;;;;;;;;;;5008220;28;20419;-83
2023/06/22 03:15:29;;;;;;;23.80;20.63;;;;;;;;;;4987883;28;20414;-83
2023/06/22 03:17:56;;;;;;;22.23;19.90;;;;;;;;;;5010658;28;20409;-85
2023/06/22 03:20:25;;;;;;;21.70;19.70;;;;;;;;;;5012971;28;20421;-85
2023/06/22 03:22:52;;;;;;;19.80;18.00;;;;;;;;;;5024799;28;20473;-84
2023/06/22 03:25:20;;;;;;;21.67;19.67;;;;;;;;;;5012885;28;20508;-84
2023/06/22 03:27:50;;;;;;;20.33;18.43;;;;;;;;;;4998043;28;20431;-83
2023/06/22 03:30:19;;;;;;;21.53;19.30;;;;;;;;;;4993659;28;20475;-84
2023/06/22 03:32:46;;;;;;;22.97;20.87;;;;;;;;;;5002893;28;20472;-85
2023/06/22 03:35:14;;;;;;;21.33;19.23;;;;;;;;;;5006970;28;20538;-84
2023/06/22 03:37:42;;;;;;;20.97;19.17;;;;;;;;;;5015540;28;20448;-85
2023/06/22 03:40:09;;;;;;;20.60;18.70;;;;;;;;;;5008242;28;20443;-84
2023/06/22 03:42:37;;;;;;;20.97;18.93;;;;;;;;;;5017749;28;20421;-84
2023/06/22 03:45:06;;;;;;;20.37;18.57;;;;;;;;;;5010564;28;20447;-85
2023/06/22 03:47:35;;;;;;;24.50;22.00;;;;;;;;;;5016506;28;20431;-85
2023/06/22 03:50:03;;;;;;;22.17;19.97;;;;;;;;;;5013898;28;20452;-86
2023/06/22 03:52:31;;;;;;;21.50;18.73;;;;;;;;;;5014934;28;20420;-86
2023/06/22 03:54:58;;;;;;;23.20;18.63;;;;;;;;;;5005073;28;20516;-85
2023/06/22 03:57:27;;;;;;;23.27;20.97;;;;;;;;;;5015791;28;20737;-84
2023/06/22 03:59:57;;;;;;;19.63;17.97;;;;;;;;;;5016669;28;20519;-83
2023/06/22 04:02:25;;;;;;;22.97;20.87;;;;;;;;;;4985875;28;20422;-84
2023/06/22 04:04:53;;;;;;;21.30;19.27;;;;;;;;;;5009404;28;20462;-86
2023/06/22 04:07:21;;;;;;;21.60;19.40;;;;;;;;;;5019089;28;20461;-87
2023/06/22 04:09:48;;;;;;;22.20;19.90;;;;;;;;;;5011321;28;20447;-86
2023/06/22 04:12:16;;;;;;;25.93;21.97;;;;;;;;;;5009998;28;20451;-87
2023/06/22 04:14:43;;;;;;;23.80;21.70;;;;;;;;;;5022483;28;20433;-81
2023/06/22 04:17:14;;;;;;;24.70;22.30;;;;;;;;;;5022320;28;20691;-84
2023/06/22 04:19:41;;;;;;;23.97;21.87;;;;;;;;;;5011361;28;20455;-83
2023/06/22 04:22:11;;;;;;;24.13;21.50;;;;;;;;;;5027563;28;20419;-84
2023/06/22 04:24:39;;;;;;;24.37;22.27;;;;;;;;;;5021596;28;20450;-85
2023/06/22 04:27:09;;;;;;;23.30;21.20;;;;;;;;;;5026265;28;20450;-83
2023/06/22 04:29:36;;;;;;;26.43;23.90;;;;;;;;;;5026762;28;20437;-84
2023/06/22 04:32:06;;;;;;;24.57;22.10;;;;;;;;;;5034395;28;20420;-86
2023/06/22 04:34:34;;;;;;;23.57;21.37;;;;;;;;;;5012430;28;20444;-81
2023/06/22 04:37:01;;;;;;;25.97;23.30;;;;;;;;;;5019183;28;20425;-86
2023/06/22 04:39:29;;;;;;;22.57;20.57;;;;;;;;;;5009442;28;20479;-84
2023/06/22 04:42:00;;;;;;;23.10;20.90;;;;;;;;;;4994451;28;20429;-86
2023/06/22 04:44:28;;;;;;;24.00;21.60;;;;;;;;;;5011992;28;20508;-82
2023/06/22 04:47:03;;;;;;;24.80;22.60;;;;;;;;;;5013532;28;20480;-84
2023/06/22 04:49:40;;;;;;;23.20;21.13;;;;;;;;;;5015912;28;20467;-84
2023/06/22 04:52:08;;;;;;;22.60;20.53;;;;;;;;;;4996763;28;20417;-83
2023/06/22 04:54:38;;;;;;;28.20;21.70;;;;;;;;;;5015313;28;20622;-86
2023/06/22 04:57:10;;;;;;;25.30;22.73;;;;;;;;;;4999079;28;20421;-83
2023/06/22 04:59:42;;;;;;;26.77;24.27;;;;;;;;;;5017124;28;20439;-84
2023/06/22 05:02:10;;;;;;;24.40;21.90;;;;;;;;;;4999894;28;20418;-83
2023/06/22 05:04:38;;;;;;;25.57;23.37;;;;;;;;;;5000085;28;20546;-84
2023/06/22 05:07:08;;;;;;;26.33;23.80;;;;;;;;;;4991116;28;20466;-83
2023/06/22 05:09:36;;;;;;;27.23;24.50;;;;;;;;;;5009156;28;20452;-86
2023/06/22 05:12:04;;;;;;;28.50;25.50;;;;;;;;;;5016811;28;20480;-82
2023/06/22 05:14:35;;;;;;;28.63;26.00;;;;;;;;;;4997363;28;20451;-83
2023/06/22 05:17:03;;;;;;;27.33;24.83;;;;;;;;;;5000413;28;20462;-87
2023/06/22 05:19:33;;;;;;;28.30;25.70;;;;;;;;;;5014898;28;20418;-85
2023/06/22 05:22:01;;;;;;;25.90;23.60;;;;;;;;;;5014444;28;20743;-85
2023/06/22 05:24:29;;;;;;;28.53;25.73;;;;;;;;;;5012450;28;20474;-83
2023/06/22 05:26:56;;;;;;;27.37;24.70;;;;;;;;;;5016213;28;20582;-84
2023/06/22 05:29:26;;;;;;;26.23;23.73;;;;;;;;;;4993933;28;20530;-85
2023/06/22 05:31:54;;;;;;;27.30;24.70;;;;;;;;;;5018888;28;20477;-81
2023/06/22 05:34:21;;;;;;;25.10;22.73;;;;;;;;;;5017604;28;20447;-84
2023/06/22 05:36:48;;;;;;;25.67;23.00;;;;;;;;;;5010688;28;20435;-84
2023/06/22 05:39:18;;;;;;;21.73;19.47;;;;;;;;;;5000765;28;20566;-82
2023/06/22 05:41:51;;;;;;;21.57;19.37;;;;;;;;;;5001603;28;20516;-84
2023/06/22 05:44:20;;;;;;;22.47;20.27;;;;;;;;;;5016615;28;20619;-85
2023/06/22 05:46:48;;;;;;;20.77;18.80;;;;;;;;;;5021190;28;20453;-84
2023/06/22 05:49:17;;;;;;;22.23;20.13;;;;;;;;;;5018596;28;20422;-88
2023/06/22 05:51:47;;;;;;;20.47;18.57;;;;;;;;;;5015002;28;20457;-81
2023/06/22 05:54:17;;;;;;;19.60;17.70;;;;;;;;;;5008494;28;20465;-84
2023/06/22 05:56:47;;;;;;;17.13;15.63;;;;;;;;;;5012185;28;20489;-83
2023/06/22 05:59:15;;;;;;;17.90;16.30;;;;;;;;;;5008289;28;20436;-84
2023/06/22 06:01:42;;;;;;;16.80;15.17;;;;;;;;;;4997105;28;20951;-81
2023/06/22 06:04:09;;;;;;;17.20;14.50;;;;;;;;;;5005117;28;20421;-83
2023/06/22 06:06:37;;;;;;;15.30;13.90;;;;;;;;;;5017195;28;20473;-84
2023/06/22 06:09:07;;;;;;;17.87;16.17;;;;;;;;;;4996822;28;20446;-78
2023/06/22 06:11:37;;;;;;;15.10;13.80;;;;;;;;;;4987505;28;20482;-85
2023/06/22 06:14:04;;;;;;;15.50;14.07;;;;;;;;;;5010348;28;20417;-86
2023/06/22 06:16:31;;;;;;;16.60;15.07;;;;;;;;;;5012232;28;20458;-85
2023/06/22 06:18:59;;;;;;;16.90;15.50;;;;;;;;;;5014469;28;20452;-84
2023/06/22 06:21:30;;;;;;;16.73;15.03;;;;;;;;;;5007267;28;20479;-82
2023/06/22 06:24:00;;;;;;;16.50;14.90;;;;;;;;;;5025838;28;20439;-81
2023/06/22 06:26:29;;;;;;;16.83;15.23;;;;;;;;;;5002653;28;20447;-85
2023/06/22 06:28:57;;;;;;;17.27;15.67;;;;;;;;;;5017824;28;20643;-79
2023/06/22 06:31:27;;;;;;;16.20;14.80;;;;;;;;;;5014690;28;20507;-84
2023/06/22 06:33:55;;;;;;;15.03;13.63;;;;;;;;;;5010747;28;20807;-85
2023/06/22 06:36:23;;;;;;;16.83;15.37;;;;;;;;;;5011892;28;20531;-81
2023/06/22 06:38:51;;;;;;;14.97;13.30;;;;;;;;;;5009997;28;20507;-81
2023/06/22 06:41:18;;;;;;;14.97;13.57;;;;;;;;;;5008577;28;20461;-84
2023/06/22 06:43:45;;;;;;;14.57;13.40;;;;;;;;;;5015541;28;20619;-81
2023/06/22 06:46:14;;;;;;;15.70;14.10;;;;;;;;;;5006206;28;20506;-83
2023/06/22 06:48:41;;;;;;;14.73;13.23;;;;;;;;;;5008958;28;20484;-79
2023/06/22 06:51:10;;;;;;;14.53;13.03;;;;;;;;;;4988724;28;20486;-82
2023/06/22 06:53:38;;;;;;;15.97;14.57;;;;;;;;;;5016727;28;20443;-82
2023/06/22 06:56:05;;;;;;;15.67;14.13;;;;;;;;;;5018259;28;20983;-80
2023/06/22 06:58:33;;;;;;;15.57;13.60;;;;;;;;;;5008760;28;20687;-81
2023/06/22 07:01:00;;;;;;;15.87;14.30;;;;;;;;;;5017553;28;20798;-83
2023/06/22 07:03:28;;;;;;;13.37;12.27;;;;;;;;;;5014592;28;20432;-81
2023/06/22 07:05:56;;;;;;;13.63;12.43;;;;;;;;;;5007504;28;20451;-83
2023/06/22 07:08:24;;;;;;;13.90;12.57;;;;;;;;;;5011094;28;20635;-82
2023/06/22 07:10:56;;;;;;;16.67;15.17;;;;;;;;;;5014325;28;20534;-83
2023/06/22 07:13:24;;;;;;;14.60;13.37;;;;;;;;;;5013570;28;20484;-84
2023/06/22 07:15:51;;;;;;;14.90;13.67;;;;;;;;;;5015930;28;20481;-81
2023/06/22 07:18:26;;;;;;;15.73;14.47;;;;;;;;;;5020374;28;20475;-83
2023/06/22 07:20:54;;;;;;;16.73;15.37;;;;;;;;;;5018803;28;20541;-84
2023/06/22 07:23:27;;;;;;;15.33;13.80;;;;;;;;;;4991892;28;20511;-85
2023/06/22 07:26:01;;;;;;;15.60;14.40;;;;;;;;;;4998881;28;20886;-82
2023/06/22 07:28:36;;;;;;;16.33;14.80;;;;;;;;;;5018395;28;20450;-83
2023/06/22 07:31:12;;;;;;;19.03;17.10;;;;;;;;;;5023887;28;20458;-88
2023/06/22 07:33:40;;;;;;;18.80;17.20;;;;;;;;;;4995313;28;20530;-85
2023/06/22 07:36:08;;;;;;;17.20;15.70;;;;;;;;;;5016088;28;20447;-82
2023/06/22 07:38:38;;;;;;;16.37;15.07;;;;;;;;;;5013207;28;20458;-84
2023/06/22 07:41:09;;;;;;;16.70;15.03;;;;;;;;;;4997107;28;20454;-83
2023/06/22 07:43:37;;;;;;;17.60;16.03;;;;;;;;;;5015424;28;20514;-80
2023/06/22 07:46:07;;;;;;;16.90;15.27;;;;;;;;;;4995161;28;20506;-83
2023/06/22 07:48:37;;;;;;;16.83;15.53;;;;;;;;;;5017320;28;20454;-82
2023/06/22 07:51:12;;;;;;;15.47;14.13;;;;;;;;;;4992744;28;20478;-85
2023/06/22 07:53:43;;;;;;;16.93;15.33;;;;;;;;;;5018375;28;20441;-79
2023/06/22 07:56:18;;;;;;;17.53;15.90;;;;;;;;;;5016641;28;20446;-84
2023/06/22 07:58:46;;;;;;;15.57;14.33;;;;;;;;;;5004644;28;20497;-81
2023/06/22 08:01:17;;;;;;;17.93;16.33;;;;;;;;;;5015404;28;20526;-84
2023/06/22 08:03:44;;;;;;;19.00;16.93;;;;;;;;;;5011667;28;20436;-84
2023/06/22 08:06:14;;;;;;;17.67;16.00;;;;;;;;;;5015126;28;20489;-82
2023/06/22 08:08:42;;;;;;;18.17;16.57;;;;;;;;;;5004370;28;20643;-84
2023/06/22 08:11:10;;;;;;;18.20;16.57;;;;;;;;;;5013424;28;20830;-81
2023/06/22 08:13:37;;;;;;;17.47;15.97;;;;;;;;;;5011750;28;20451;-83
2023/06/22 08:16:07;;;;;;;16.47;15.07;;;;;;;;;;5017501;28;20443;-85
2023/06/22 08:18:34;;;;;;;16.07;14.87;;;;;;;;;;5008526;28;20514;-83
2023/06/22 08:21:05;;;;;;;16.60;15.10;;;;;;;;;;5017167;28;20451;-83
2023/06/22 08:23:32;;;;;;;15.57;14.27;;;;;;;;;;5017520;28;20489;-82
2023/06/22 08:26:00;;;;;;;14.60;13.43;;;;;;;;;;4986655;28;20470;-81
2023/06/22 08:28:28;;;;;;;15.90;14.60;;;;;;;;;;5000846;28;20450;-82
2023/06/22 08:30:55;;;;;;;17.67;16.07;;;;;;;;;;4988925;28;20455;-83
2023/06/22 08:33:28;;;;;;;17.33;16.03;;;;;;;;;;5010211;28;20458;-83
2023/06/22 08:35:55;;;;;;;16.27;15.03;;;;;;;;;;5007936;28;20504;-85
2023/06/22 08:38:23;;;;;;;17.37;15.90;;;;;;;;;;5010246;28;20502;-84
2023/06/22 08:40:51;;;;;;;17.00;15.70;;;;;;;;;;4993426;28;20448;-87
2023/06/22 08:43:19;;;;;;;16.47;15.37;;;;;;;;;;5013046;28;20466;-82
2023/06/22 08:45:47;;;;;;;16.57;15.27;;;;;;;;;;5019764;28;20439;-79
2023/06/22 08:48:14;;;;;;;15.73;14.63;;;;;;;;;;5013760;28;20478;-83
2023/06/22 08:50:41;;;;;;;14.90;13.90;;;;;;;;;;5012151;28;20812;-83
2023/06/22 08:53:10;;;;;;;17.40;15.67;;;;;;;;;;5001853;28;20791;-83
2023/06/22 08:55:37;;;;;;;17.47;16.07;;;;;;;;;;5016486;28;20466;-81
2023/06/22 08:58:06;;;;;;;16.00;14.70;;;;;;;;;;5017063;28;20448;-83
2023/06/22 09:00:35;;;;;;;14.90;13.70;;;;;;;;;;5007427;28;20455;-80
2023/06/22 09:03:03;;;;;;;13.87;12.77;;;;;;;;;;5015317;28;20514;-81
2023/06/22 09:05:31;;;;;;;14.40;13.30;;;;;;;;;;5013039;28;20430;-88
2023/06/22 09:08:03;;;;;;;14.23;13.23;;;;;;;;;;5004459;28;20997;-83
2023/06/22 09:10:31;;;;;;;14.33;13.13;;;;;;;;;;5010353;28;20446;-80
2023/06/22 09:13:00;;;;;;;15.77;14.43;;;;;;;;;;5011492;28;20884;-86
2023/06/22 09:15:28;;;;;;;15.40;14.23;;;;;;;;;;5013265;28;20457;-86
2023/06/22 09:17:57;;;;;;;15.63;14.37;;;;;;;;;;5019763;28;20492;-82
2023/06/22 09:20:26;;;;;;;14.30;13.20;;;;;;;;;;5011665;28;20455;-81
2023/06/22 09:22:58;;;;;;;13.90;12.80;;;;;;;;;;5019212;28;20502;-82
2023/06/22 09:25:28;;;;;;;14.13;12.90;;;;;;;;;;4996363;28;20541;-85
2023/06/22 09:27:56;;;;;;;13.80;12.60;;;;;;;;;;5016190;28;20451;-86
2023/06/22 09:30:23;;;;;;;12.07;11.07;;;;;;;;;;5009122;28;20526;-86
2023/06/22 09:32:52;;;;;;;14.60;13.50;;;;;;;;;;5018246;28;20482;-84
2023/06/22 09:35:19;;;;;;;14.90;13.70;;;;;;;;;;5010430;28;20497;-82
2023/06/22 09:37:49;;;;;;;14.37;13.27;;;;;;;;;;5021713;28;20509;-83
2023/06/22 09:40:20;;;;;;;14.17;13.07;;;;;;;;;;5018284;28;20506;-83
2023/06/22 09:42:50;;;;;;;14.30;13.10;;;;;;;;;;5022119;28;20450;-83
2023/06/22 09:45:17;;;;;;;13.37;12.27;;;;;;;;;;5016889;28;20512;-81
2023/06/22 09:47:45;;;;;;;15.13;13.90;;;;;;;;;;5018777;28;20446;-83
2023/06/22 09:50:14;;;;;;;14.80;13.20;;;;;;;;;;5011663;28;20493;-83
2023/06/22 09:52:44;;;;;;;13.17;11.97;;;;;;;;;;5003785;28;20803;-83
2023/06/22 09:55:15;;;;;;;14.33;12.97;;;;;;;;;;5016078;28;20660;-83
2023/06/22 09:57:43;;;;;;;15.10;13.73;;;;;;;;;;5003642;28;20475;-83
2023/06/22 10:00:13;;;;;;;13.63;12.63;;;;;;;;;;4989698;28;20935;-80
2023/06/22 10:02:41;;;;;;;13.80;12.70;;;;;;;;;;5020082;28;20478;-81
2023/06/22 10:05:10;;;;;;;13.57;12.37;;;;;;;;;;5018594;28;20514;-84
2023/06/22 10:07:42;;;;;;;17.73;16.33;;;;;;;;;;5006786;28;20455;-83
2023/06/22 10:10:11;;;;;;;13.37;12.37;;;;;;;;;;5009444;28;20444;-80
2023/06/22 10:12:46;;;;;;;13.73;12.50;;;;;;;;;;5010136;28;20550;-81
2023/06/22 10:15:14;;;;;;;13.47;12.40;;;;;;;;;;5011805;28;20510;-81
2023/06/22 10:17:42;;;;;;;12.13;11.23;;;;;;;;;;5011915;28;20493;-83
2023/06/22 10:20:11;;;;;;;12.00;11.00;;;;;;;;;;5015703;28;20459;-86
2023/06/22 10:22:40;;;;;;;12.27;11.30;;;;;;;;;;5012155;28;20980;-85
2023/06/22 10:25:08;;;;;;;11.37;10.57;;;;;;;;;;5017378;28;20471;-83
2023/06/22 10:27:35;;;;;;;12.23;11.33;;;;;;;;;;5005983;28;20465;-83
2023/06/22 10:30:05;;;;;;;16.17;12.13;;;;;;;;;;5019208;28;20523;-85
2023/06/22 10:32:32;;;;;;;14.30;12.90;;;;;;;;;;5012854;28;20505;-82
2023/06/22 10:35:00;;;;;;;12.60;11.70;;;;;;;;;;4990057;28;20564;-85
2023/06/22 10:37:28;;;;;;;12.27;11.40;;;;;;;;;;5010181;28;20473;-83
2023/06/22 10:39:55;;;;;;;12.23;11.33;;;;;;;;;;5008997;28;20462;-79
2023/06/22 10:42:23;;;;;;;14.03;12.33;;;;;;;;;;5008246;28;20459;-85
2023/06/22 10:44:53;;;;;;;11.10;10.20;;;;;;;;;;5011091;28;20930;-83
2023/06/22 10:47:20;;;;;;;12.00;10.87;;;;;;;;;;5004406;28;21008;-81
2023/06/22 10:49:47;;;;;;;12.23;11.23;;;;;;;;;;5012426;28;20435;-86
2023/06/22 10:52:15;;;;;;;11.77;10.70;;;;;;;;;;4988352;28;20494;-81
2023/06/22 10:54:42;;;;;;;14.70;10.77;;;;;;;;;;5011221;28;20458;-81
2023/06/22 10:57:11;;;;;;;11.83;11.03;;;;;;;;;;5016580;28;20508;-82
2023/06/22 10:59:40;;;;;;;11.27;10.47;;;;;;;;;;5016526;28;20447;-84
2023/06/22 11:02:08;;;;;;;12.97;11.77;;;;;;;;;;4996973;28;20454;-79
2023/06/22 11:04:37;;;;;;;12.50;11.50;;;;;;;;;;5005161;28;20456;-81
2023/06/22 11:07:06;;;;;;;11.70;10.60;;;;;;;;;;4992834;28;20961;-80
2023/06/22 11:09:33;;;;;;;13.40;12.20;;;;;;;;;;5018368;28;20532;-83
2023/06/22 11:12:01;;;;;;;11.93;11.03;;;;;;;;;;5014761;28;20894;-84
2023/06/22 11:14:29;;;;;;;11.97;11.07;;;;;;;;;;5010997;28;20471;-84
2023/06/22 11:16:56;;;;;;;11.57;10.77;;;;;;;;;;5013542;28;20458;-82
2023/06/22 11:19:24;;;;;;;12.80;11.90;;;;;;;;;;4996749;28;20511;-86
2023/06/22 11:21:51;;;;;;;10.80;10.00;;;;;;;;;;4998514;28;20514;-84
2023/06/22 11:24:18;;;;;;;11.50;10.60;;;;;;;;;;5012001;28;20458;-82
2023/06/22 11:26:46;;;;;;;11.67;10.60;;;;;;;;;;5019056;28;20442;-83
2023/06/22 11:29:13;;;;;;;11.43;10.53;;;;;;;;;;5001468;28;20511;-82
2023/06/22 11:31:59;;;;;;;11.63;10.73;;;;;;;;;;5016211;28;20470;-86
2023/06/22 11:34:27;;;;;;;11.70;10.70;;;;;;;;;;5004229;28;20435;-82
2023/06/22 11:36:55;;;;;;;11.77;10.97;;;;;;;;;;5017325;28;20442;-86
2023/06/22 11:39:22;;;;;;;11.87;10.97;;;;;;;;;;5009200;28;20901;-86
2023/06/22 11:42:09;;;;;;;11.20;10.30;;;;;;;;;;5015205;28;20517;-84
2023/06/22 11:44:36;;;;;;;10.57;9.77;;;;;;;;;;5013736;28;20443;-82
2023/06/22 11:47:04;;;;;;;10.53;9.77;;;;;;;;;;5009805;28;20442;-82
2023/06/22 11:49:31;;;;;;;11.70;10.90;;;;;;;;;;5010448;28;20511;-80
2023/06/22 11:51:59;;;;;;;11.70;10.70;;;;;;;;;;5016509;28;20482;-82
2023/06/22 11:54:27;;;;;;;11.10;10.17;;;;;;;;;;5012114;28;21002;-83
2023/06/22 11:56:56;;;;;;;11.93;10.80;;;;;;;;;;5021581;28;20466;-80
2023/06/22 11:59:23;;;;;;;12.03;11.00;;;;;;;;;;5014823;28;20460;-79
2023/06/22 12:01:51;;;;;;;10.97;10.17;;;;;;;;;;5029689;28;20471;-81
2023/06/22 12:04:18;;;;;;;11.67;10.57;;;;;;;;;;5008870;28;20441;-84
2023/06/22 12:06:46;;;;;;;10.37;9.67;;;;;;;;;;5011251;28;20435;-83
2023/06/22 12:09:14;;;;;;;11.23;10.20;;;;;;;;;;5001401;28;20825;-85
2023/06/22 12:11:42;;;;;;;10.37;9.47;;;;;;;;;;5019766;28;20454;-80
2023/06/22 12:14:09;;;;;;;12.53;11.43;;;;;;;;;;5013191;28;20441;-83
2023/06/22 12:19:19;;;;;;;10.17;9.17;;;;;;;;;;5090553;22;20503;-83
2023/06/22 12:21:47;;;;;;;10.23;9.53;;;;;;;;;;5021950;28;20443;-84
2023/06/22 12:24:15;;;;;;;10.60;9.80;;;;;;;;;;5023131;28;20441;-85
2023/06/22 12:26:43;;;;;;;9.40;8.70;;;;;;;;;;5023029;28;20434;-83
2023/06/22 12:29:10;;;;;;;10.87;9.87;;;;;;;;;;5021789;28;20446;-83
2023/06/22 12:31:39;;;;;;;10.00;9.30;;;;;;;;;;4994439;28;20573;-85
2023/06/22 12:34:07;;;;;;;11.03;9.93;;;;;;;;;;5005080;28;20446;-86
2023/06/22 12:36:34;;;;;;;10.67;9.93;;;;;;;;;;5019474;28;21142;-83
2023/06/22 12:39:01;;;;;;;10.07;9.07;;;;;;;;;;5016907;28;20435;-80
2023/06/22 12:41:28;;;;;;;9.97;8.97;;;;;;;;;;5023348;28;20516;-81
2023/06/22 12:43:56;;;;;;;10.13;9.33;;;;;;;;;;4998403;28;20451;-85
2023/06/22 12:46:23;;;;;;;9.87;8.97;;;;;;;;;;5006261;28;20448;-85
2023/06/22 12:48:50;;;;;;;9.90;9.10;;;;;;;;;;5005558;28;20442;-82
2023/06/22 12:51:22;;;;;;;10.13;9.07;;;;;;;;;;5019361;28;20465;-80
2023/06/22 12:53:52;;;;;;;9.57;8.77;;;;;;;;;;5004836;28;20470;-84
2023/06/22 12:56:34;;;;;;;9.80;9.03;;;;;;;;;;5001674;28;20422;-85
2023/06/22 12:59:09;;;;;;;9.80;9.00;;;;;;;;;;5001319;28;20446;-81
2023/06/22 13:01:38;;;;;;;10.20;9.20;;;;;;;;;;5010777;28;20572;-84
2023/06/22 13:04:07;;;;;;;9.30;8.60;;;;;;;;;;5009533;28;20727;-85
2023/06/22 13:06:40;;;;;;;10.30;9.40;;;;;;;;;;5000140;28;20597;-88
2023/06/22 13:09:10;;;;;;;9.97;9.17;;;;;;;;;;5019786;28;20462;-85
2023/06/22 13:11:48;;;;;;;9.20;8.50;;;;;;;;;;5008083;28;20477;-83
2023/06/22 13:14:16;;;;;;;10.03;9.23;;;;;;;;;;5023608;28;20454;-83
2023/06/22 13:16:43;;;;;;;9.20;8.50;;;;;;;;;;5010653;28;20463;-80
2023/06/22 13:19:10;;;;;;;9.37;8.47;;;;;;;;;;5012039;28;20454;-88
2023/06/22 13:21:38;;;;;;;10.10;9.30;;;;;;;;;;5001917;28;20453;-85
2023/06/22 13:24:06;;;;;;;10.37;9.33;;;;;;;;;;5013465;28;20432;-81
2023/06/22 13:26:33;;;;;;;9.83;9.00;;;;;;;;;;5025154;28;20458;-80
2023/06/22 13:29:01;;;;;;;10.60;9.60;;;;;;;;;;5019895;28;20458;-84
2023/06/22 13:31:28;;;;;;;9.80;9.10;;;;;;;;;;5017741;28;20458;-87
2023/06/22 13:33:56;;;;;;;9.97;9.17;;;;;;;;;;5013044;28;20493;-84
2023/06/22 13:36:24;;;;;;;8.77;8.13;;;;;;;;;;5001721;28;20439;-85
2023/06/22 13:38:56;;;;;;;10.20;9.30;;;;;;;;;;5015125;28;20448;-84
2023/06/22 13:41:23;;;;;;;8.60;8.00;;;;;;;;;;5011663;28;20432;-85
2023/06/22 13:43:53;;;;;;;8.93;8.23;;;;;;;;;;5001381;28;20481;-84
2023/06/22 13:46:20;;;;;;;7.90;7.10;;;;;;;;;;5009964;28;20546;-84
2023/06/22 13:48:47;;;;;;;8.43;7.77;;;;;;;;;;5021187;28;20449;-84
2023/06/22 13:51:18;;;;;;;8.97;8.27;;;;;;;;;;5021406;28;20502;-84
2023/06/22 13:53:46;;;;;;;9.20;8.60;;;;;;;;;;5015712;28;20862;-81
2023/06/22 13:56:13;;;;;;;8.30;7.73;;;;;;;;;;5016038;28;20778;-83
2023/06/22 13:58:41;;;;;;;9.23;8.53;;;;;;;;;;5016816;28;20522;-87
2023/06/22 14:01:08;;;;;;;8.37;7.67;;;;;;;;;;5017187;28;20514;-82
2023/06/22 14:03:46;;;;;;;9.33;8.53;;;;;;;;;;5009753;28;20466;-82
2023/06/22 14:06:14;;;;;;;8.90;8.10;;;;;;;;;;5013134;28;20443;-87
2023/06/22 14:08:41;;;;;;;8.73;8.03;;;;;;;;;;5012273;28;20999;-86
2023/06/22 14:11:10;;;;;;;8.73;8.10;;;;;;;;;;5017238;28;20442;-83
2023/06/22 14:13:37;;;;;;;8.60;7.70;;;;;;;;;;5004586;28;20483;-88
2023/06/22 14:16:06;;;;;;;9.83;9.13;;;;;;;;;;5016741;28;20739;-82
2023/06/22 14:18:33;;;;;;;9.57;8.87;;;;;;;;;;5020476;28;20477;-80
2023/06/22 14:21:00;;;;;;;9.97;9.17;;;;;;;;;;5013790;28;20509;-86
2023/06/22 14:23:28;;;;;;;8.93;8.13;;;;;;;;;;5009159;28;20458;-81
2023/06/22 14:25:56;;;;;;;8.50;7.90;;;;;;;;;;5008691;28;20454;-81
2023/06/22 14:28:23;;;;;;;9.20;8.40;;;;;;;;;;5001997;28;20534;-86
2023/06/22 14:30:51;;;;;;;8.80;8.20;;;;;;;;;;5020647;28;20798;-85
2023/06/22 14:33:18;;;;;;;9.00;8.40;;;;;;;;;;5013086;28;20489;-85